Ingeniero Jacobacci, Argentina
Current Conditions -  °F | °C
As of 11:00 AM on Thursday 30 Oct 2014 (Local Time) from SAZS Reporting Station
Rain Showers Rain Showers  
Wind Chill: 27°   Ceiling: Unl
Heat Index: 39°   Visibility: 5mi
Dew Point: 32°   Wind: 35mph
Humidity: 75%   Direction: 320°NW
Pressure: 29.8"   Gusts: 46mph
Location:  41.43°S, 69.47°W
Report Text: SAZS 301400Z 32030G40KT 8000 VCSH SCT020SCT030 04/00 Q1009
Loading
Personal Weather Stations






























Interactive Weather Map New forecast layout! Learn more

10-Day Weather Forecast

Advertisements
Track Severe Weather on mobile